createdAt,value
2022-12-07T00:01:26.906Z,1.80
2022-12-07T00:03:58.207Z,1.63
2022-12-07T00:06:25.076Z,2.42
2022-12-07T00:08:51.919Z,2.55
2022-12-07T00:11:21.923Z,2.05
2022-12-07T00:13:53.238Z,1.75
2022-12-07T00:16:22.891Z,1.88
2022-12-07T00:18:49.966Z,1.70
2022-12-07T00:21:21.532Z,1.95
2022-12-07T00:23:50.049Z,1.67
2022-12-07T00:26:24.202Z,1.85
2022-12-07T00:28:56.645Z,2.15
2022-12-07T00:31:28.243Z,1.73
2022-12-07T00:33:55.250Z,1.70
2022-12-07T00:36:27.004Z,2.25
2022-12-07T00:38:55.982Z,1.33
2022-12-07T00:41:25.553Z,1.50
2022-12-07T00:43:52.719Z,1.38
2022-12-07T00:46:20.602Z,1.88
2022-12-07T00:48:48.737Z,1.98
2022-12-07T00:51:17.870Z,1.67
2022-12-07T00:53:44.734Z,2.10
2022-12-07T00:56:17.911Z,1.73
2022-12-07T00:58:45.247Z,2.60
2022-12-07T01:01:12.390Z,1.50
2022-12-07T01:03:39.693Z,1.50
2022-12-07T01:06:07.390Z,1.60
2022-12-07T01:08:34.641Z,1.70
2022-12-07T01:11:03.851Z,1.40
2022-12-07T01:13:30.878Z,1.65
2022-12-07T01:16:00.783Z,2.17
2022-12-07T01:18:29.931Z,1.67
2022-12-07T01:21:08.403Z,2.00
2022-12-07T01:23:37.307Z,2.30
2022-12-07T01:26:08.001Z,2.10
2022-12-07T01:28:35.174Z,2.03
2022-12-07T01:31:06.592Z,1.80
2022-12-07T01:33:36.319Z,1.95
2022-12-07T01:36:37.015Z,2.22
2022-12-07T01:39:07.329Z,1.92
2022-12-07T01:41:37.681Z,1.58
2022-12-07T01:44:09.885Z,1.95
2022-12-07T01:46:36.898Z,1.48
2022-12-07T01:49:11.120Z,1.38
2022-12-07T01:51:39.609Z,1.60
2022-12-07T01:54:06.858Z,1.67
2022-12-07T01:56:34.091Z,1.63
2022-12-07T01:59:01.668Z,1.95
2022-12-07T02:01:29.088Z,1.75
2022-12-07T02:03:56.513Z,1.60
2022-12-07T02:06:26.851Z,2.10
2022-12-07T02:08:54.485Z,1.58
2022-12-07T02:11:22.204Z,1.75
2022-12-07T02:13:49.459Z,1.58
2022-12-07T02:16:50.416Z,1.70
2022-12-07T02:19:35.781Z,1.42
2022-12-07T02:22:26.949Z,1.45
2022-12-07T02:25:20.643Z,1.25
2022-12-07T02:27:54.007Z,1.30
2022-12-07T02:30:22.446Z,1.25
2022-12-07T02:33:03.772Z,1.75
2022-12-07T02:35:40.455Z,1.70
2022-12-07T02:38:16.484Z,1.60
2022-12-07T02:40:53.038Z,1.77
2022-12-07T02:43:26.493Z,2.15
2022-12-07T02:45:57.631Z,1.50
2022-12-07T02:48:25.855Z,1.65
2022-12-07T02:50:54.463Z,1.80
2022-12-07T02:53:44.709Z,1.80
2022-12-07T02:56:33.277Z,1.88
2022-12-07T02:59:32.428Z,1.50
2022-12-07T03:02:18.306Z,2.45
2022-12-07T03:05:10.114Z,1.65
2022-12-07T03:08:01.927Z,1.98
2022-12-07T03:10:37.848Z,2.00
2022-12-07T03:13:17.185Z,2.03
2022-12-07T03:16:20.865Z,1.48
2022-12-07T03:18:56.606Z,1.15
2022-12-07T03:21:33.403Z,1.30
2022-12-07T03:24:06.515Z,1.25
2022-12-07T03:26:37.907Z,2.00
2022-12-07T03:29:28.555Z,1.80
2022-12-07T03:32:04.364Z,1.58
2022-12-07T03:34:37.689Z,1.60
2022-12-07T03:37:10.316Z,1.33
2022-12-07T03:39:55.751Z,1.35
2022-12-07T03:42:23.078Z,1.00
2022-12-07T03:44:50.466Z,1.20
2022-12-07T03:47:30.809Z,1.92
2022-12-07T03:50:10.886Z,1.33
2022-12-07T03:52:46.017Z,1.73
2022-12-07T03:55:30.500Z,1.88
2022-12-07T03:58:04.482Z,2.08
2022-12-07T04:00:32.200Z,1.60
2022-12-07T04:02:59.900Z,2.50
2022-12-07T04:05:27.573Z,2.38
2022-12-07T04:07:54.490Z,1.55
2022-12-07T04:10:21.575Z,2.13
2022-12-07T04:12:48.495Z,1.75
2022-12-07T04:15:15.531Z,2.00
2022-12-07T04:17:42.450Z,1.85
2022-12-07T04:20:10.048Z,2.13
2022-12-07T04:22:37.026Z,2.03
2022-12-07T04:25:04.394Z,2.35
2022-12-07T04:27:31.301Z,1.63
2022-12-07T04:29:58.181Z,2.72
2022-12-07T04:32:25.210Z,1.40
2022-12-07T04:34:55.664Z,1.88
2022-12-07T04:37:23.538Z,1.90
2022-12-07T04:39:50.476Z,2.45
2022-12-07T04:42:17.459Z,2.35
2022-12-07T04:44:44.312Z,2.30
2022-12-07T04:47:11.356Z,2.05
2022-12-07T04:49:38.274Z,1.92
2022-12-07T04:52:05.402Z,1.65
2022-12-07T04:54:32.249Z,1.70
2022-12-07T04:56:59.326Z,1.60
2022-12-07T04:59:26.227Z,1.77
2022-12-07T05:01:53.147Z,1.75
2022-12-07T05:04:20.153Z,1.73
2022-12-07T05:06:47.030Z,1.13
2022-12-07T05:09:13.835Z,1.42
2022-12-07T05:11:41.090Z,1.52
2022-12-07T05:14:12.854Z,1.23
2022-12-07T05:16:40.396Z,1.20
2022-12-07T05:19:08.023Z,1.33
2022-12-07T05:21:35.503Z,1.20
2022-12-07T05:24:02.730Z,1.45
2022-12-07T05:26:29.862Z,1.48
2022-12-07T05:28:57.840Z,1.30
2022-12-07T05:31:26.485Z,1.30
2022-12-07T05:33:53.580Z,1.52
2022-12-07T05:36:20.480Z,1.60
2022-12-07T05:38:47.435Z,1.23
2022-12-07T05:41:35.882Z,1.02
2022-12-07T05:44:03.523Z,1.42
2022-12-07T05:46:30.342Z,1.42
2022-12-07T05:48:57.211Z,1.80
2022-12-07T05:51:24.063Z,2.03
2022-12-07T05:53:51.020Z,1.23
2022-12-07T05:56:17.858Z,1.23
2022-12-07T05:59:03.265Z,1.52
2022-12-07T06:01:30.433Z,1.60
2022-12-07T06:03:57.252Z,1.80
2022-12-07T06:06:24.231Z,1.38
2022-12-07T06:08:51.159Z,1.80
2022-12-07T06:11:36.486Z,1.45
2022-12-07T06:14:03.543Z,1.30
2022-12-07T06:16:30.415Z,1.40
2022-12-07T06:18:57.450Z,1.40
2022-12-07T06:21:24.293Z,1.25
2022-12-07T06:23:51.196Z,1.73
2022-12-07T06:26:18.096Z,2.13
2022-12-07T06:28:44.974Z,2.25
2022-12-07T06:31:14.142Z,1.30
2022-12-07T06:33:42.371Z,1.63
2022-12-07T06:36:10.142Z,1.70
2022-12-07T06:38:37.495Z,1.63
2022-12-07T06:41:05.280Z,1.50
2022-12-07T06:43:32.166Z,1.77
2022-12-07T06:45:59.060Z,2.25
2022-12-07T06:48:26.067Z,1.88
2022-12-07T06:50:54.959Z,2.05
2022-12-07T06:53:22.966Z,2.20
2022-12-07T06:55:50.420Z,1.77
2022-12-07T06:58:18.320Z,2.10
2022-12-07T07:00:46.109Z,1.73
2022-12-07T07:03:13.287Z,1.95
2022-12-07T07:05:40.309Z,2.03
2022-12-07T07:08:23.280Z,1.73
2022-12-07T07:10:50.936Z,1.85
2022-12-07T07:13:17.800Z,1.50
2022-12-07T07:15:44.757Z,2.05
2022-12-07T07:18:12.033Z,1.15
2022-12-07T07:20:39.312Z,1.52
2022-12-07T07:23:06.249Z,1.60
2022-12-07T07:25:33.468Z,1.60
2022-12-07T07:28:00.329Z,1.30
2022-12-07T07:30:27.933Z,1.40
2022-12-07T07:33:03.386Z,1.45
2022-12-07T07:37:58.068Z,1.10
2022-12-07T07:40:25.487Z,1.40
2022-12-07T07:42:53.990Z,1.65
2022-12-07T07:45:22.679Z,1.35
2022-12-07T07:47:49.839Z,2.17
2022-12-07T07:50:17.469Z,1.95
2022-12-07T07:52:45.051Z,1.33
2022-12-07T07:55:12.410Z,0.98
2022-12-07T07:57:40.400Z,1.58
2022-12-07T08:00:14.669Z,1.55
2022-12-07T08:02:43.783Z,1.50
2022-12-07T08:38:30.075Z,1.27
2022-12-07T08:40:59.771Z,1.55
2022-12-07T08:43:26.672Z,1.38
2022-12-07T08:46:18.953Z,1.95
2022-12-07T08:48:55.322Z,1.42
2022-12-07T08:51:23.308Z,1.50
2022-12-07T08:53:52.043Z,1.50
2022-12-07T08:56:20.184Z,1.67
2022-12-07T08:58:47.173Z,1.77
2022-12-07T09:01:14.139Z,1.27
2022-12-07T09:03:41.132Z,1.20
2022-12-07T09:06:09.080Z,1.50
2022-12-07T09:08:50.768Z,1.67
2022-12-07T09:11:17.674Z,1.17
2022-12-07T09:13:44.507Z,1.50
2022-12-07T09:16:11.882Z,1.60
2022-12-07T09:18:39.199Z,1.95
2022-12-07T09:21:06.149Z,1.40
2022-12-07T09:23:33.195Z,1.55
2022-12-07T09:26:04.853Z,1.30
2022-12-07T09:28:34.649Z,1.63
2022-12-07T09:31:22.710Z,1.98
2022-12-07T09:33:53.574Z,1.48
2022-12-07T09:36:20.496Z,1.60
2022-12-07T09:38:47.331Z,1.60
2022-12-07T09:41:14.295Z,1.10
2022-12-07T09:43:41.711Z,1.55
2022-12-07T09:46:17.874Z,1.17
2022-12-07T09:48:45.859Z,1.80
2022-12-07T09:51:25.650Z,2.28
2022-12-07T09:53:54.786Z,1.65
2022-12-07T09:56:22.791Z,1.65
2022-12-07T09:58:51.194Z,1.40
2022-12-07T10:01:20.527Z,1.23
2022-12-07T10:03:57.399Z,1.50
2022-12-07T10:06:24.281Z,1.40
2022-12-07T10:08:51.318Z,1.42
2022-12-07T10:11:18.242Z,1.50
2022-12-07T10:13:49.881Z,1.50
2022-12-07T10:16:41.298Z,1.25
2022-12-07T10:19:34.138Z,0.90
2022-12-07T10:22:22.579Z,1.63
2022-12-07T10:24:51.161Z,1.20
2022-12-07T10:27:26.941Z,1.58
2022-12-07T10:29:54.594Z,1.60
2022-12-07T10:32:21.345Z,0.93
2022-12-07T10:34:52.153Z,0.85
2022-12-07T10:37:21.331Z,0.68
2022-12-07T10:39:52.239Z,0.77
2022-12-07T10:42:27.533Z,1.40
2022-12-07T10:45:12.923Z,1.15
2022-12-07T10:48:07.015Z,1.35
2022-12-07T10:50:36.654Z,1.58
2022-12-07T10:53:23.387Z,1.52
2022-12-07T10:56:18.104Z,0.93
2022-12-07T10:59:03.580Z,1.00
2022-12-07T11:01:39.503Z,1.30
2022-12-07T11:04:44.014Z,1.13
2022-12-07T11:07:32.326Z,1.10
2022-12-07T11:10:27.118Z,1.25
2022-12-07T11:13:21.495Z,1.20
2022-12-07T11:16:26.193Z,1.50
2022-12-07T11:19:28.149Z,1.60
2022-12-07T11:21:59.584Z,1.63
2022-12-07T11:24:41.828Z,1.20
2022-12-07T11:27:33.006Z,1.08
2022-12-07T11:30:18.149Z,1.08
2022-12-07T11:33:19.215Z,1.08
2022-12-07T11:36:13.032Z,1.50
2022-12-07T11:38:44.836Z,1.10
2022-12-07T11:41:14.981Z,1.40
2022-12-07T11:44:09.720Z,1.27
2022-12-07T11:47:02.849Z,1.00
2022-12-07T11:49:54.910Z,1.05
2022-12-07T11:52:38.535Z,1.60
2022-12-07T11:55:14.560Z,0.73
2022-12-07T11:57:47.038Z,0.88
2022-12-07T12:00:17.357Z,1.15
2022-12-07T12:02:47.377Z,0.80
2022-12-07T12:05:23.439Z,0.95
2022-12-07T12:11:10.017Z,0.73
2022-12-07T12:17:25.477Z,0.80
2022-12-07T12:20:15.988Z,1.27
2022-12-07T12:23:08.535Z,1.00
2022-12-07T12:25:47.702Z,1.60
2022-12-07T12:28:26.688Z,1.70
2022-12-07T12:31:33.481Z,1.40
2022-12-07T12:36:45.613Z,1.00
2022-12-07T12:39:15.788Z,1.02
2022-12-07T12:42:02.664Z,1.13
2022-12-07T12:44:33.170Z,1.38
2022-12-07T12:47:05.753Z,1.38
2022-12-07T12:49:36.659Z,1.23
2022-12-07T12:52:15.803Z,1.55
2022-12-07T12:55:10.691Z,1.50
2022-12-07T12:57:38.128Z,1.13
2022-12-07T13:00:21.183Z,0.95
2022-12-07T13:02:54.586Z,0.70
2022-12-07T13:05:28.619Z,0.70
2022-12-07T13:08:02.839Z,0.95
2022-12-07T13:10:33.862Z,1.88
2022-12-07T13:13:11.897Z,1.30
2022-12-07T13:15:52.178Z,1.58
2022-12-07T13:18:31.749Z,2.20
2022-12-07T13:21:02.212Z,1.35
2022-12-07T13:23:44.111Z,2.50
2022-12-07T13:26:24.559Z,2.65
2022-12-07T13:29:04.964Z,1.98
2022-12-07T13:31:41.582Z,1.58
2022-12-07T13:34:44.984Z,1.63
2022-12-07T13:37:23.579Z,1.90
2022-12-07T13:39:52.733Z,2.25
2022-12-07T13:42:33.648Z,1.65
2022-12-07T13:45:18.393Z,1.30
2022-12-07T13:47:53.311Z,1.58
2022-12-07T13:50:28.918Z,1.50
2022-12-07T13:53:14.677Z,1.35
2022-12-07T13:55:52.387Z,1.30
2022-12-07T13:58:22.323Z,1.00
2022-12-07T14:00:49.689Z,1.38
2022-12-07T14:03:16.818Z,1.60
2022-12-07T14:05:45.408Z,1.75
2022-12-07T14:08:12.371Z,1.10
2022-12-07T14:10:42.049Z,1.10
2022-12-07T14:13:42.085Z,1.38
2022-12-07T14:16:32.337Z,1.40
2022-12-07T14:19:02.753Z,1.10
2022-12-07T14:21:32.125Z,1.42
2022-12-07T14:24:19.982Z,1.20
2022-12-07T14:26:48.815Z,1.20
2022-12-07T14:29:29.158Z,1.30
2022-12-07T14:31:57.444Z,1.40
2022-12-07T14:34:25.340Z,1.55
2022-12-07T14:36:52.307Z,0.93
2022-12-07T14:39:19.128Z,1.30
2022-12-07T14:41:51.777Z,1.50
2022-12-07T14:44:23.880Z,1.63
2022-12-07T14:49:39.575Z,1.45
2022-12-07T14:55:00.150Z,1.38
2022-12-07T14:57:27.231Z,1.52
2022-12-07T14:59:54.090Z,1.55
2022-12-07T15:02:20.933Z,1.52
2022-12-07T15:04:47.975Z,2.00
2022-12-07T15:07:21.219Z,1.85
2022-12-07T15:09:49.162Z,1.58
2022-12-07T15:12:16.344Z,1.30
2022-12-07T15:14:43.292Z,1.55
2022-12-07T15:17:23.430Z,1.50
2022-12-07T15:19:54.952Z,1.75
2022-12-07T15:22:21.739Z,1.60
2022-12-07T15:24:48.612Z,1.42
2022-12-07T15:27:15.573Z,1.58
2022-12-07T15:29:42.499Z,1.60
2022-12-07T15:32:09.423Z,2.65
2022-12-07T15:34:39.845Z,1.50
2022-12-07T15:37:08.569Z,1.13
2022-12-07T15:39:37.282Z,1.73
2022-12-07T15:42:04.329Z,1.73
2022-12-07T15:44:49.775Z,1.60
2022-12-07T15:47:16.778Z,1.50
2022-12-07T15:49:44.439Z,2.83
2022-12-07T15:52:11.383Z,1.85
2022-12-07T15:54:38.250Z,1.38
2022-12-07T15:57:05.226Z,3.28
2022-12-07T15:59:32.231Z,2.83
2022-12-07T16:01:59.963Z,2.42
2022-12-07T16:04:29.702Z,2.67
2022-12-07T16:06:57.506Z,1.95
2022-12-07T16:09:24.550Z,2.35
2022-12-07T16:11:51.585Z,1.70
2022-12-07T16:14:18.554Z,1.58
2022-12-07T16:16:45.594Z,1.27
2022-12-07T16:19:13.247Z,1.50
2022-12-07T16:21:40.604Z,1.45
2022-12-07T16:24:08.353Z,2.35
2022-12-07T16:26:35.333Z,2.17
2022-12-07T16:29:02.482Z,1.67
2022-12-07T16:31:29.822Z,1.85
2022-12-07T16:33:58.474Z,1.63
2022-12-07T16:39:13.902Z,1.77
2022-12-07T16:41:41.030Z,1.92
2022-12-07T16:44:10.979Z,1.75
2022-12-07T16:46:38.066Z,1.45
2022-12-07T16:49:06.238Z,2.40
2022-12-07T16:51:35.662Z,2.10
2022-12-07T16:54:02.553Z,2.13
2022-12-07T16:56:30.162Z,2.20
2022-12-07T16:58:59.497Z,2.00
2022-12-07T17:01:29.212Z,1.95
2022-12-07T17:03:58.592Z,1.48
2022-12-07T17:06:28.478Z,2.30
2022-12-07T17:08:56.861Z,1.70
2022-12-07T17:11:26.334Z,2.85
2022-12-07T17:14:12.012Z,1.90
2022-12-07T17:16:39.363Z,1.90
2022-12-07T17:19:08.077Z,1.75
2022-12-07T17:21:35.207Z,1.85
2022-12-07T17:24:03.886Z,2.00
2022-12-07T17:26:35.435Z,2.10
2022-12-07T17:29:04.436Z,2.03
2022-12-07T17:31:31.709Z,1.48
2022-12-07T17:33:59.177Z,1.80
2022-12-07T17:36:29.157Z,2.20
2022-12-07T17:38:56.212Z,1.58
2022-12-07T17:41:50.581Z,1.88
2022-12-07T17:44:19.235Z,1.50
2022-12-07T17:46:47.306Z,1.95
2022-12-07T17:49:14.403Z,1.92
2022-12-07T17:52:00.131Z,2.10
2022-12-07T17:56:53.915Z,2.30
2022-12-07T17:59:20.862Z,1.88
2022-12-07T18:01:47.813Z,2.00
2022-12-07T18:04:14.983Z,2.05
2022-12-07T18:06:45.204Z,2.63
2022-12-07T18:09:15.834Z,2.80
2022-12-07T18:11:42.614Z,3.47
2022-12-07T18:14:09.530Z,3.17
2022-12-07T18:16:36.551Z,2.75
2022-12-07T18:19:06.254Z,2.22
2022-12-07T18:21:33.720Z,2.17
2022-12-07T18:24:03.185Z,1.50
2022-12-07T18:26:32.585Z,2.60
2022-12-07T18:29:02.946Z,2.47
2022-12-07T18:31:30.513Z,2.47
2022-12-07T18:34:01.701Z,2.83
2022-12-07T18:36:28.620Z,4.10
2022-12-07T18:38:55.509Z,4.50
2022-12-07T18:41:22.642Z,3.22
2022-12-07T18:43:49.515Z,7.82
2022-12-07T18:46:19.835Z,3.45
2022-12-07T18:48:49.340Z,5.32
2022-12-07T18:51:16.965Z,3.90
2022-12-07T18:53:44.261Z,3.70
2022-12-07T18:56:20.335Z,3.67
2022-12-07T18:59:14.599Z,3.10
2022-12-07T19:01:43.322Z,3.47
2022-12-07T19:04:10.781Z,3.85
2022-12-07T19:06:37.752Z,3.70
2022-12-07T19:09:04.804Z,3.78
2022-12-07T19:11:52.267Z,4.47
2022-12-07T19:14:23.250Z,3.05
2022-12-07T19:16:52.278Z,3.53
2022-12-07T19:19:21.827Z,3.40
2022-12-07T19:21:49.224Z,3.63
2022-12-07T19:24:22.776Z,3.60
2022-12-07T19:26:51.406Z,3.03
2022-12-07T19:29:18.404Z,3.20
2022-12-07T19:31:45.473Z,3.92
2022-12-07T19:34:15.405Z,3.10
2022-12-07T19:36:43.074Z,3.25
2022-12-07T19:39:14.743Z,3.00
2022-12-07T19:41:44.056Z,2.70
2022-12-07T19:44:12.195Z,3.03
2022-12-07T19:46:39.999Z,2.75
2022-12-07T19:49:06.932Z,3.05
2022-12-07T19:51:34.275Z,3.58
2022-12-07T19:54:02.910Z,3.20
2022-12-07T19:56:31.067Z,3.05
2022-12-07T19:59:00.999Z,3.75
2022-12-07T20:01:29.664Z,3.42
2022-12-07T20:03:57.702Z,3.50
2022-12-07T20:06:25.440Z,3.05
2022-12-07T20:08:52.969Z,3.60
2022-12-07T20:11:56.196Z,3.67
2022-12-07T20:14:23.549Z,3.42
2022-12-07T20:16:50.856Z,2.97
2022-12-07T20:19:18.543Z,3.35
2022-12-07T20:21:46.067Z,2.58
2022-12-07T20:24:22.734Z,3.05
2022-12-07T20:26:51.079Z,3.22
2022-12-07T20:29:20.909Z,3.00
2022-12-07T20:31:49.130Z,2.78
2022-12-07T20:34:16.517Z,2.78
2022-12-07T20:36:43.824Z,2.53
2022-12-07T20:39:11.038Z,3.17
2022-12-07T20:41:57.984Z,2.85
2022-12-07T20:44:25.351Z,2.50
2022-12-07T20:46:52.162Z,2.17
2022-12-07T20:49:19.123Z,2.30
2022-12-07T20:51:46.761Z,2.13
2022-12-07T20:54:14.564Z,1.75
2022-12-07T20:56:41.955Z,2.38
2022-12-07T20:59:13.314Z,2.35
2022-12-07T21:01:40.596Z,1.83
2022-12-07T21:04:08.335Z,2.78
2022-12-07T21:06:35.310Z,2.60
2022-12-07T21:09:02.223Z,2.70
2022-12-07T21:11:30.586Z,3.20
2022-12-07T21:13:57.994Z,3.47
2022-12-07T21:16:27.503Z,3.08
2022-12-07T21:18:55.984Z,2.95
2022-12-07T21:21:23.884Z,2.72
2022-12-07T21:23:58.104Z,3.13
2022-12-07T21:26:29.115Z,2.80
2022-12-07T21:28:57.128Z,2.67
2022-12-07T21:31:24.425Z,2.30
2022-12-07T21:33:51.584Z,2.45
2022-12-07T21:36:23.722Z,3.42
2022-12-07T21:38:51.382Z,3.10
2022-12-07T21:41:20.457Z,2.70
2022-12-07T21:43:48.423Z,3.22
2022-12-07T21:46:17.114Z,3.15
2022-12-07T21:48:48.959Z,2.88
2022-12-07T21:51:16.079Z,3.10
2022-12-07T21:53:43.742Z,3.80
2022-12-07T21:56:22.605Z,3.33
2022-12-07T21:58:50.246Z,2.95
2022-12-07T22:01:25.691Z,3.08
2022-12-07T22:03:53.681Z,3.50
2022-12-07T22:06:25.226Z,3.80
2022-12-07T22:08:53.010Z,3.45
2022-12-07T22:11:20.435Z,3.00
2022-12-07T22:14:10.226Z,2.97
2022-12-07T22:16:38.642Z,3.03
2022-12-07T22:19:06.882Z,2.80
2022-12-07T22:21:34.509Z,3.10
2022-12-07T22:24:01.746Z,2.72
2022-12-07T22:26:28.748Z,2.05
2022-12-07T22:28:55.732Z,2.55
2022-12-07T22:31:23.430Z,2.35
2022-12-07T22:33:51.200Z,2.30
2022-12-07T22:36:18.575Z,2.45
2022-12-07T22:38:45.981Z,2.25
2022-12-07T22:41:23.384Z,2.75
2022-12-07T22:43:50.468Z,2.17
2022-12-07T22:46:17.599Z,2.00
2022-12-07T22:48:44.676Z,1.50
2022-12-07T22:51:26.208Z,1.80
2022-12-07T22:53:54.664Z,2.10
2022-12-07T22:56:22.466Z,1.98
2022-12-07T22:58:49.493Z,2.05
2022-12-07T23:01:18.237Z,2.10
2022-12-07T23:03:45.632Z,2.85
2022-12-07T23:06:16.807Z,2.88
2022-12-07T23:08:43.909Z,1.67
2022-12-07T23:11:37.654Z,2.28
2022-12-07T23:14:10.003Z,2.05
2022-12-07T23:16:37.289Z,1.88
2022-12-07T23:19:04.351Z,2.00
2022-12-07T23:21:31.701Z,2.15
2022-12-07T23:23:58.736Z,2.15
2022-12-07T23:26:26.568Z,1.80
2022-12-07T23:28:53.747Z,1.95
2022-12-07T23:31:22.023Z,1.95
2022-12-07T23:33:48.883Z,1.70
2022-12-07T23:36:21.671Z,2.00
2022-12-07T23:38:50.447Z,2.00
2022-12-07T23:41:20.224Z,2.08
2022-12-07T23:43:47.998Z,1.67
2022-12-07T23:46:17.978Z,1.80
2022-12-07T23:48:45.736Z,2.13
2022-12-07T23:51:15.022Z,2.03
2022-12-07T23:53:44.298Z,2.20
2022-12-07T23:56:17.253Z,1.95
2022-12-07T23:58:44.364Z,1.33
